sensor_id;sensor_type;location;lat;lon;timestamp;temperature;humidity
18868;DHT22;9563;49.240;9.088;2022-09-09T00:01:14;16.00;99.90
18868;DHT22;9563;49.240;9.088;2022-09-09T00:03:47;16.00;99.90
18868;DHT22;9563;49.240;9.088;2022-09-09T00:06:21;16.00;99.90
18868;DHT22;9563;49.240;9.088;2022-09-09T00:08:56;16.00;99.90
18868;DHT22;9563;49.240;9.088;2022-09-09T00:11:29;16.00;99.90
18868;DHT22;9563;49.240;9.088;2022-09-09T00:14:03;16.00;99.90
18868;DHT22;9563;49.240;9.088;2022-09-09T00:16:38;15.90;99.90
18868;DHT22;9563;49.240;9.088;2022-09-09T00:19:12;16.00;99.90
18868;DHT22;9563;49.240;9.088;2022-09-09T00:21:46;15.90;99.90
18868;DHT22;9563;49.240;9.088;2022-09-09T00:24:23;15.90;99.90
18868;DHT22;9563;49.240;9.088;2022-09-09T00:26:57;15.90;99.90
18868;DHT22;9563;49.240;9.088;2022-09-09T00:29:33;15.90;99.90
18868;DHT22;9563;49.240;9.088;2022-09-09T00:32:11;16.00;99.90
18868;DHT22;9563;49.240;9.088;2022-09-09T00:34:48;16.00;99.90
18868;DHT22;9563;49.240;9.088;2022-09-09T00:37:15;16.00;99.90
18868;DHT22;9563;49.240;9.088;2022-09-09T00:39:45;16.10;99.90
18868;DHT22;9563;49.240;9.088;2022-09-09T00:42:15;16.00;99.90
18868;DHT22;9563;49.240;9.088;2022-09-09T00:45:01;16.00;99.90
18868;DHT22;9563;49.240;9.088;2022-09-09T00:47:45;16.10;99.90
18868;DHT22;9563;49.240;9.088;2022-09-09T00:50:35;16.00;99.90
18868;DHT22;9563;49.240;9.088;2022-09-09T00:53:15;16.00;99.90
18868;DHT22;9563;49.240;9.088;2022-09-09T00:55:48;16.00;99.90
18868;DHT22;9563;49.240;9.088;2022-09-09T00:58:16;16.00;99.90
18868;DHT22;9563;49.240;9.088;2022-09-09T01:00:47;15.90;99.90
18868;DHT22;9563;49.240;9.088;2022-09-09T01:03:21;15.80;99.90
18868;DHT22;9563;49.240;9.088;2022-09-09T01:06:00;15.90;99.90
18868;DHT22;9563;49.240;9.088;2022-09-09T01:08:48;15.90;99.90
18868;DHT22;9563;49.240;9.088;2022-09-09T01:11:22;15.90;99.90
18868;DHT22;9563;49.240;9.088;2022-09-09T01:13:55;15.90;99.90
18868;DHT22;9563;49.240;9.088;2022-09-09T01:16:28;15.90;99.90
18868;DHT22;9563;49.240;9.088;2022-09-09T01:18:56;16.00;99.90
18868;DHT22;9563;49.240;9.088;2022-09-09T01:21:32;15.90;99.90
18868;DHT22;9563;49.240;9.088;2022-09-09T01:24:19;16.00;99.90
18868;DHT22;9563;49.240;9.088;2022-09-09T01:26:51;16.00;99.90
18868;DHT22;9563;49.240;9.088;2022-09-09T01:29:21;16.00;99.90
18868;DHT22;9563;49.240;9.088;2022-09-09T01:31:54;16.00;99.90
18868;DHT22;9563;49.240;9.088;2022-09-09T01:34:23;16.00;99.90
18868;DHT22;9563;49.240;9.088;2022-09-09T01:36:56;16.00;99.90
18868;DHT22;9563;49.240;9.088;2022-09-09T01:39:24;16.00;99.90
18868;DHT22;9563;49.240;9.088;2022-09-09T01:41:53;16.00;99.90
18868;DHT22;9563;49.240;9.088;2022-09-09T01:44:20;16.00;99.90
18868;DHT22;9563;49.240;9.088;2022-09-09T01:46:48;15.90;99.90
18868;DHT22;9563;49.240;9.088;2022-09-09T01:49:16;15.90;99.90
18868;DHT22;9563;49.240;9.088;2022-09-09T01:51:43;15.90;99.90
18868;DHT22;9563;49.240;9.088;2022-09-09T01:54:12;15.90;99.90
18868;DHT22;9563;49.240;9.088;2022-09-09T01:56:47;15.80;99.90
18868;DHT22;9563;49.240;9.088;2022-09-09T01:59:27;15.80;99.90
18868;DHT22;9563;49.240;9.088;2022-09-09T02:02:08;15.90;99.90
18868;DHT22;9563;49.240;9.088;2022-09-09T02:04:39;15.90;99.90
18868;DHT22;9563;49.240;9.088;2022-09-09T02:07:12;15.80;99.90
18868;DHT22;9563;49.240;9.088;2022-09-09T02:09:41;15.90;99.90
18868;DHT22;9563;49.240;9.088;2022-09-09T02:12:14;15.90;99.90
18868;DHT22;9563;49.240;9.088;2022-09-09T02:14:49;15.90;99.90
18868;DHT22;9563;49.240;9.088;2022-09-09T02:17:21;15.90;99.90
18868;DHT22;9563;49.240;9.088;2022-09-09T02:19:53;15.80;99.90
18868;DHT22;9563;49.240;9.088;2022-09-09T02:22:23;15.80;99.90
18868;DHT22;9563;49.240;9.088;2022-09-09T02:24:51;15.80;99.90
18868;DHT22;9563;49.240;9.088;2022-09-09T02:27:22;15.80;99.90
18868;DHT22;9563;49.240;9.088;2022-09-09T02:29:52;15.80;99.90
18868;DHT22;9563;49.240;9.088;2022-09-09T02:32:23;15.80;99.90
18868;DHT22;9563;49.240;9.088;2022-09-09T02:34:55;15.80;99.90
18868;DHT22;9563;49.240;9.088;2022-09-09T02:37:26;15.80;99.90
18868;DHT22;9563;49.240;9.088;2022-09-09T02:39:54;15.90;99.90
18868;DHT22;9563;49.240;9.088;2022-09-09T02:42:21;15.90;99.90
18868;DHT22;9563;49.240;9.088;2022-09-09T02:44:51;15.90;99.90
18868;DHT22;9563;49.240;9.088;2022-09-09T02:47:25;15.90;99.90
18868;DHT22;9563;49.240;9.088;2022-09-09T02:50:00;15.90;99.90
18868;DHT22;9563;49.240;9.088;2022-09-09T02:52:34;15.90;99.90
18868;DHT22;9563;49.240;9.088;2022-09-09T02:55:08;15.90;99.90
18868;DHT22;9563;49.240;9.088;2022-09-09T02:57:38;15.90;99.90
18868;DHT22;9563;49.240;9.088;2022-09-09T03:00:09;15.90;99.90
18868;DHT22;9563;49.240;9.088;2022-09-09T03:02:36;15.90;99.90
18868;DHT22;9563;49.240;9.088;2022-09-09T03:05:04;15.90;99.90
18868;DHT22;9563;49.240;9.088;2022-09-09T03:07:32;15.80;99.90
18868;DHT22;9563;49.240;9.088;2022-09-09T03:09:58;15.80;99.90
18868;DHT22;9563;49.240;9.088;2022-09-09T03:12:25;15.80;99.90
18868;DHT22;9563;49.240;9.088;2022-09-09T03:14:52;15.80;99.90
18868;DHT22;9563;49.240;9.088;2022-09-09T03:17:21;15.80;99.90
18868;DHT22;9563;49.240;9.088;2022-09-09T03:19:48;15.80;99.90
18868;DHT22;9563;49.240;9.088;2022-09-09T03:22:15;15.80;99.90
18868;DHT22;9563;49.240;9.088;2022-09-09T03:24:42;15.80;99.90
18868;DHT22;9563;49.240;9.088;2022-09-09T03:27:09;15.80;99.90
18868;DHT22;9563;49.240;9.088;2022-09-09T03:29:36;15.90;99.90
18868;DHT22;9563;49.240;9.088;2022-09-09T03:32:03;15.80;99.90
18868;DHT22;9563;49.240;9.088;2022-09-09T03:34:32;15.80;99.90
18868;DHT22;9563;49.240;9.088;2022-09-09T03:36:59;15.80;99.90
18868;DHT22;9563;49.240;9.088;2022-09-09T03:39:25;15.90;99.90
18868;DHT22;9563;49.240;9.088;2022-09-09T03:41:52;15.90;99.90
18868;DHT22;9563;49.240;9.088;2022-09-09T03:44:19;15.90;99.90
18868;DHT22;9563;49.240;9.088;2022-09-09T03:46:46;15.90;99.90
18868;DHT22;9563;49.240;9.088;2022-09-09T03:49:12;15.90;99.90
18868;DHT22;9563;49.240;9.088;2022-09-09T03:51:42;15.90;99.90
18868;DHT22;9563;49.240;9.088;2022-09-09T03:54:08;15.90;99.90
18868;DHT22;9563;49.240;9.088;2022-09-09T03:56:36;15.90;99.90
18868;DHT22;9563;49.240;9.088;2022-09-09T03:59:03;15.90;99.90
18868;DHT22;9563;49.240;9.088;2022-09-09T04:01:31;15.90;99.90
18868;DHT22;9563;49.240;9.088;2022-09-09T04:03:57;15.90;99.90
18868;DHT22;9563;49.240;9.088;2022-09-09T04:06:25;15.90;99.90
18868;DHT22;9563;49.240;9.088;2022-09-09T04:08:53;15.90;99.90
18868;DHT22;9563;49.240;9.088;2022-09-09T04:11:20;15.90;99.90
18868;DHT22;9563;49.240;9.088;2022-09-09T04:13:47;15.90;99.90
18868;DHT22;9563;49.240;9.088;2022-09-09T04:16:14;16.00;99.90
18868;DHT22;9563;49.240;9.088;2022-09-09T04:18:41;15.90;99.90
18868;DHT22;9563;49.240;9.088;2022-09-09T04:21:08;16.00;99.90
18868;DHT22;9563;49.240;9.088;2022-09-09T04:23:36;16.00;99.90
18868;DHT22;9563;49.240;9.088;2022-09-09T04:26:05;16.00;99.90
18868;DHT22;9563;49.240;9.088;2022-09-09T04:28:33;16.00;99.90
18868;DHT22;9563;49.240;9.088;2022-09-09T04:31:05;16.00;99.90
18868;DHT22;9563;49.240;9.088;2022-09-09T04:33:32;16.00;99.90
18868;DHT22;9563;49.240;9.088;2022-09-09T04:35:58;16.00;99.90
18868;DHT22;9563;49.240;9.088;2022-09-09T04:38:26;16.00;99.90
18868;DHT22;9563;49.240;9.088;2022-09-09T04:40:52;16.00;99.90
18868;DHT22;9563;49.240;9.088;2022-09-09T04:43:21;16.00;99.90
18868;DHT22;9563;49.240;9.088;2022-09-09T04:45:51;16.00;99.90
18868;DHT22;9563;49.240;9.088;2022-09-09T04:48:18;15.90;99.90
18868;DHT22;9563;49.240;9.088;2022-09-09T04:50:54;15.90;99.90
18868;DHT22;9563;49.240;9.088;2022-09-09T04:53:21;15.90;99.90
18868;DHT22;9563;49.240;9.088;2022-09-09T04:55:48;15.80;99.90
18868;DHT22;9563;49.240;9.088;2022-09-09T04:58:15;15.80;99.90
18868;DHT22;9563;49.240;9.088;2022-09-09T05:00:43;15.80;99.90
18868;DHT22;9563;49.240;9.088;2022-09-09T05:03:10;15.70;99.90
18868;DHT22;9563;49.240;9.088;2022-09-09T05:05:38;15.70;99.90
18868;DHT22;9563;49.240;9.088;2022-09-09T05:08:07;15.60;99.90
18868;DHT22;9563;49.240;9.088;2022-09-09T05:10:36;15.60;99.90
18868;DHT22;9563;49.240;9.088;2022-09-09T05:13:04;15.60;99.90
18868;DHT22;9563;49.240;9.088;2022-09-09T05:15:32;15.60;99.90
18868;DHT22;9563;49.240;9.088;2022-09-09T05:18:01;15.60;99.90
18868;DHT22;9563;49.240;9.088;2022-09-09T05:20:29;15.60;99.90
18868;DHT22;9563;49.240;9.088;2022-09-09T05:22:56;15.60;99.90
18868;DHT22;9563;49.240;9.088;2022-09-09T05:25:24;15.70;99.90
18868;DHT22;9563;49.240;9.088;2022-09-09T05:27:51;15.70;99.90
18868;DHT22;9563;49.240;9.088;2022-09-09T05:30:19;15.70;99.90
18868;DHT22;9563;49.240;9.088;2022-09-09T05:32:46;15.80;99.90
18868;DHT22;9563;49.240;9.088;2022-09-09T05:35:15;15.80;99.90
18868;DHT22;9563;49.240;9.088;2022-09-09T05:37:44;15.80;99.90
18868;DHT22;9563;49.240;9.088;2022-09-09T05:40:11;15.80;99.90
18868;DHT22;9563;49.240;9.088;2022-09-09T05:42:38;15.80;99.90
18868;DHT22;9563;49.240;9.088;2022-09-09T05:45:06;15.90;99.90
18868;DHT22;9563;49.240;9.088;2022-09-09T05:47:34;15.80;99.90
18868;DHT22;9563;49.240;9.088;2022-09-09T05:50:03;15.80;99.90
18868;DHT22;9563;49.240;9.088;2022-09-09T05:52:31;15.90;99.90
18868;DHT22;9563;49.240;9.088;2022-09-09T05:54:58;15.90;99.90
18868;DHT22;9563;49.240;9.088;2022-09-09T05:57:25;15.90;99.90
18868;DHT22;9563;49.240;9.088;2022-09-09T05:59:52;15.90;99.90
18868;DHT22;9563;49.240;9.088;2022-09-09T06:02:19;16.00;99.90
18868;DHT22;9563;49.240;9.088;2022-09-09T06:04:46;16.00;99.90
18868;DHT22;9563;49.240;9.088;2022-09-09T06:07:12;16.10;99.90
18868;DHT22;9563;49.240;9.088;2022-09-09T06:09:41;16.10;99.90
18868;DHT22;9563;49.240;9.088;2022-09-09T06:12:08;16.20;99.90
18868;DHT22;9563;49.240;9.088;2022-09-09T06:14:35;16.20;99.90
18868;DHT22;9563;49.240;9.088;2022-09-09T06:17:02;16.20;99.90
18868;DHT22;9563;49.240;9.088;2022-09-09T06:19:29;16.30;99.90
18868;DHT22;9563;49.240;9.088;2022-09-09T06:21:56;16.30;99.90
18868;DHT22;9563;49.240;9.088;2022-09-09T06:24:24;16.40;99.90
18868;DHT22;9563;49.240;9.088;2022-09-09T06:26:52;16.40;99.90
18868;DHT22;9563;49.240;9.088;2022-09-09T06:29:19;16.40;99.90
18868;DHT22;9563;49.240;9.088;2022-09-09T06:31:46;16.50;99.90
18868;DHT22;9563;49.240;9.088;2022-09-09T06:34:13;16.60;99.90
18868;DHT22;9563;49.240;9.088;2022-09-09T06:36:40;16.60;99.90
18868;DHT22;9563;49.240;9.088;2022-09-09T06:39:08;16.70;99.90
18868;DHT22;9563;49.240;9.088;2022-09-09T06:41:37;16.70;99.90
18868;DHT22;9563;49.240;9.088;2022-09-09T06:44:06;16.80;99.90
18868;DHT22;9563;49.240;9.088;2022-09-09T06:46:33;16.90;99.90
18868;DHT22;9563;49.240;9.088;2022-09-09T06:49:01;16.90;99.90
18868;DHT22;9563;49.240;9.088;2022-09-09T06:51:30;16.90;99.90
18868;DHT22;9563;49.240;9.088;2022-09-09T06:53:59;17.00;99.90
18868;DHT22;9563;49.240;9.088;2022-09-09T06:56:27;17.00;99.90
18868;DHT22;9563;49.240;9.088;2022-09-09T06:58:55;17.00;99.90
18868;DHT22;9563;49.240;9.088;2022-09-09T07:01:26;17.10;99.90
18868;DHT22;9563;49.240;9.088;2022-09-09T07:03:55;17.10;99.90
18868;DHT22;9563;49.240;9.088;2022-09-09T07:06:26;17.20;99.90
18868;DHT22;9563;49.240;9.088;2022-09-09T07:08:54;17.30;99.90
18868;DHT22;9563;49.240;9.088;2022-09-09T07:11:23;17.30;99.90
18868;DHT22;9563;49.240;9.088;2022-09-09T07:13:51;17.30;99.90
18868;DHT22;9563;49.240;9.088;2022-09-09T07:16:19;17.30;99.90
18868;DHT22;9563;49.240;9.088;2022-09-09T07:18:50;17.30;99.90
18868;DHT22;9563;49.240;9.088;2022-09-09T07:21:18;17.30;99.90
18868;DHT22;9563;49.240;9.088;2022-09-09T07:23:46;17.40;99.90
18868;DHT22;9563;49.240;9.088;2022-09-09T07:26:15;17.50;99.90
18868;DHT22;9563;49.240;9.088;2022-09-09T07:28:42;17.60;99.90
18868;DHT22;9563;49.240;9.088;2022-09-09T07:31:14;17.70;99.90
18868;DHT22;9563;49.240;9.088;2022-09-09T07:33:42;17.80;99.90
18868;DHT22;9563;49.240;9.088;2022-09-09T07:36:14;17.90;99.90
18868;DHT22;9563;49.240;9.088;2022-09-09T07:38:42;18.30;99.90
18868;DHT22;9563;49.240;9.088;2022-09-09T07:41:12;18.70;99.90
18868;DHT22;9563;49.240;9.088;2022-09-09T07:43:40;19.20;99.90
18868;DHT22;9563;49.240;9.088;2022-09-09T07:46:09;19.60;99.90
18868;DHT22;9563;49.240;9.088;2022-09-09T07:48:36;20.00;99.90
18868;DHT22;9563;49.240;9.088;2022-09-09T07:51:05;19.90;99.90
18868;DHT22;9563;49.240;9.088;2022-09-09T07:53:34;20.00;99.90
18868;DHT22;9563;49.240;9.088;2022-09-09T07:56:05;20.20;99.90
18868;DHT22;9563;49.240;9.088;2022-09-09T07:58:33;20.30;99.90
18868;DHT22;9563;49.240;9.088;2022-09-09T08:01:00;19.90;99.90
18868;DHT22;9563;49.240;9.088;2022-09-09T08:03:26;19.60;99.90
18868;DHT22;9563;49.240;9.088;2022-09-09T08:06:00;19.40;99.90
18868;DHT22;9563;49.240;9.088;2022-09-09T08:08:28;19.30;99.90
18868;DHT22;9563;49.240;9.088;2022-09-09T08:11:04;19.20;99.90
18868;DHT22;9563;49.240;9.088;2022-09-09T08:13:33;19.10;99.90
18868;DHT22;9563;49.240;9.088;2022-09-09T08:16:05;19.50;99.90
18868;DHT22;9563;49.240;9.088;2022-09-09T08:18:32;19.80;99.90
18868;DHT22;9563;49.240;9.088;2022-09-09T08:21:05;19.80;99.90
18868;DHT22;9563;49.240;9.088;2022-09-09T08:23:34;19.90;99.90
18868;DHT22;9563;49.240;9.088;2022-09-09T08:26:07;20.00;99.90
18868;DHT22;9563;49.240;9.088;2022-09-09T08:28:35;20.30;99.90
18868;DHT22;9563;49.240;9.088;2022-09-09T08:31:07;20.80;99.90
18868;DHT22;9563;49.240;9.088;2022-09-09T08:33:35;21.20;99.90
18868;DHT22;9563;49.240;9.088;2022-09-09T08:36:04;20.90;99.90
18868;DHT22;9563;49.240;9.088;2022-09-09T08:38:32;20.40;99.90
18868;DHT22;9563;49.240;9.088;2022-09-09T08:41:15;20.10;99.90
18868;DHT22;9563;49.240;9.088;2022-09-09T08:43:47;19.80;99.90
18868;DHT22;9563;49.240;9.088;2022-09-09T08:46:20;19.50;99.90
18868;DHT22;9563;49.240;9.088;2022-09-09T08:48:54;19.80;99.90
18868;DHT22;9563;49.240;9.088;2022-09-09T08:51:25;20.30;99.90
18868;DHT22;9563;49.240;9.088;2022-09-09T08:53:54;20.90;99.90
18868;DHT22;9563;49.240;9.088;2022-09-09T08:56:24;21.40;99.90
18868;DHT22;9563;49.240;9.088;2022-09-09T08:58:53;21.70;99.90
18868;DHT22;9563;49.240;9.088;2022-09-09T09:01:35;21.70;99.90
18868;DHT22;9563;49.240;9.088;2022-09-09T09:04:12;21.80;99.90
18868;DHT22;9563;49.240;9.088;2022-09-09T09:06:49;21.90;99.90
18868;DHT22;9563;49.240;9.088;2022-09-09T09:09:24;22.10;99.90
18868;DHT22;9563;49.240;9.088;2022-09-09T09:11:57;21.90;99.90
18868;DHT22;9563;49.240;9.088;2022-09-09T09:14:28;21.70;99.90
18868;DHT22;9563;49.240;9.088;2022-09-09T09:16:58;21.10;99.90
18868;DHT22;9563;49.240;9.088;2022-09-09T09:19:26;20.70;99.90
18868;DHT22;9563;49.240;9.088;2022-09-09T09:21:57;21.10;99.90
18868;DHT22;9563;49.240;9.088;2022-09-09T09:24:32;21.30;99.90
18868;DHT22;9563;49.240;9.088;2022-09-09T09:27:12;21.00;99.90
18868;DHT22;9563;49.240;9.088;2022-09-09T09:29:40;20.60;99.90
18868;DHT22;9563;49.240;9.088;2022-09-09T09:32:11;20.40;99.90
18868;DHT22;9563;49.240;9.088;2022-09-09T09:34:40;20.00;99.90
18868;DHT22;9563;49.240;9.088;2022-09-09T09:37:15;19.50;99.90
18868;DHT22;9563;49.240;9.088;2022-09-09T09:39:45;18.90;99.90
18868;DHT22;9563;49.240;9.088;2022-09-09T09:42:16;18.20;99.90
18868;DHT22;9563;49.240;9.088;2022-09-09T09:44:44;17.40;99.90
18868;DHT22;9563;49.240;9.088;2022-09-09T09:47:13;17.00;99.90
18868;DHT22;9563;49.240;9.088;2022-09-09T09:49:51;16.80;99.90
18868;DHT22;9563;49.240;9.088;2022-09-09T09:52:22;16.60;99.90
18868;DHT22;9563;49.240;9.088;2022-09-09T09:54:50;16.60;99.90
18868;DHT22;9563;49.240;9.088;2022-09-09T09:57:23;16.80;99.90
18868;DHT22;9563;49.240;9.088;2022-09-09T10:00:03;17.20;99.90
18868;DHT22;9563;49.240;9.088;2022-09-09T10:02:37;17.80;99.90
18868;DHT22;9563;49.240;9.088;2022-09-09T10:05:12;18.50;99.90
18868;DHT22;9563;49.240;9.088;2022-09-09T10:07:40;19.10;99.90
18868;DHT22;9563;49.240;9.088;2022-09-09T10:10:13;19.80;99.90
18868;DHT22;9563;49.240;9.088;2022-09-09T10:12:53;20.40;99.90
18868;DHT22;9563;49.240;9.088;2022-09-09T10:15:32;20.70;99.90
18868;DHT22;9563;49.240;9.088;2022-09-09T10:18:10;21.00;99.90
18868;DHT22;9563;49.240;9.088;2022-09-09T10:20:44;21.10;99.90
18868;DHT22;9563;49.240;9.088;2022-09-09T10:23:24;21.40;99.90
18868;DHT22;9563;49.240;9.088;2022-09-09T10:26:09;21.90;99.90
18868;DHT22;9563;49.240;9.088;2022-09-09T10:31:43;21.80;99.90
18868;DHT22;9563;49.240;9.088;2022-09-09T10:34:23;22.00;99.90
18868;DHT22;9563;49.240;9.088;2022-09-09T10:36:54;21.70;99.90
18868;DHT22;9563;49.240;9.088;2022-09-09T10:39:32;21.30;99.90
18868;DHT22;9563;49.240;9.088;2022-09-09T10:42:04;21.30;99.90
18868;DHT22;9563;49.240;9.088;2022-09-09T10:44:51;21.30;99.90
18868;DHT22;9563;49.240;9.088;2022-09-09T10:47:29;21.40;99.90
18868;DHT22;9563;49.240;9.088;2022-09-09T10:50:14;21.50;99.90
18868;DHT22;9563;49.240;9.088;2022-09-09T10:52:50;21.50;99.90
18868;DHT22;9563;49.240;9.088;2022-09-09T10:55:27;21.50;99.90
18868;DHT22;9563;49.240;9.088;2022-09-09T10:57:57;21.70;99.90
18868;DHT22;9563;49.240;9.088;2022-09-09T11:00:35;21.90;99.90
18868;DHT22;9563;49.240;9.088;2022-09-09T11:03:04;22.10;99.90
18868;DHT22;9563;49.240;9.088;2022-09-09T11:05:38;22.40;99.90
18868;DHT22;9563;49.240;9.088;2022-09-09T11:08:12;22.20;99.90
18868;DHT22;9563;49.240;9.088;2022-09-09T11:10:44;22.10;99.90
18868;DHT22;9563;49.240;9.088;2022-09-09T11:13:18;22.20;99.90
18868;DHT22;9563;49.240;9.088;2022-09-09T11:15:50;22.20;99.90
18868;DHT22;9563;49.240;9.088;2022-09-09T11:18:20;22.40;99.90
18868;DHT22;9563;49.240;9.088;2022-09-09T11:20:51;22.50;99.90
18868;DHT22;9563;49.240;9.088;2022-09-09T11:23:25;22.30;99.90
18868;DHT22;9563;49.240;9.088;2022-09-09T11:25:55;22.00;99.90
18868;DHT22;9563;49.240;9.088;2022-09-09T11:28:32;21.70;99.90
18868;DHT22;9563;49.240;9.088;2022-09-09T11:31:16;21.40;99.90
18868;DHT22;9563;49.240;9.088;2022-09-09T11:34:03;21.30;99.90
18868;DHT22;9563;49.240;9.088;2022-09-09T11:36:43;21.40;99.90
18868;DHT22;9563;49.240;9.088;2022-09-09T11:39:38;21.40;99.90
18868;DHT22;9563;49.240;9.088;2022-09-09T11:42:22;21.80;99.90
18868;DHT22;9563;49.240;9.088;2022-09-09T11:44:50;21.70;99.90
18868;DHT22;9563;49.240;9.088;2022-09-09T11:47:25;21.20;99.90
18868;DHT22;9563;49.240;9.088;2022-09-09T11:50:07;21.00;99.90
18868;DHT22;9563;49.240;9.088;2022-09-09T11:52:39;21.00;99.90
18868;DHT22;9563;49.240;9.088;2022-09-09T11:55:09;21.10;99.90
18868;DHT22;9563;49.240;9.088;2022-09-09T11:57:38;21.70;99.90
18868;DHT22;9563;49.240;9.088;2022-09-09T12:02:50;22.40;99.90
18868;DHT22;9563;49.240;9.088;2022-09-09T12:05:17;22.10;99.90
18868;DHT22;9563;49.240;9.088;2022-09-09T12:07:51;22.40;99.90
18868;DHT22;9563;49.240;9.088;2022-09-09T12:10:23;22.80;99.90
18868;DHT22;9563;49.240;9.088;2022-09-09T12:12:51;22.70;99.90
18868;DHT22;9563;49.240;9.088;2022-09-09T12:15:25;22.70;99.90
18868;DHT22;9563;49.240;9.088;2022-09-09T12:17:57;22.30;99.90
18868;DHT22;9563;49.240;9.088;2022-09-09T12:20:31;21.90;99.90
18868;DHT22;9563;49.240;9.088;2022-09-09T12:23:13;21.50;99.90
18868;DHT22;9563;49.240;9.088;2022-09-09T12:25:59;21.50;99.90
18868;DHT22;9563;49.240;9.088;2022-09-09T12:28:45;21.50;99.90
18868;DHT22;9563;49.240;9.088;2022-09-09T12:31:20;21.30;99.90
18868;DHT22;9563;49.240;9.088;2022-09-09T12:33:51;21.10;99.90
18868;DHT22;9563;49.240;9.088;2022-09-09T12:36:21;21.10;99.90
18868;DHT22;9563;49.240;9.088;2022-09-09T12:38:48;21.10;99.90
18868;DHT22;9563;49.240;9.088;2022-09-09T12:41:21;21.20;99.90
18868;DHT22;9563;49.240;9.088;2022-09-09T12:43:48;21.30;99.90
18868;DHT22;9563;49.240;9.088;2022-09-09T12:46:24;21.30;99.90
18868;DHT22;9563;49.240;9.088;2022-09-09T12:48:56;21.50;99.90
18868;DHT22;9563;49.240;9.088;2022-09-09T12:51:26;21.90;99.90
18868;DHT22;9563;49.240;9.088;2022-09-09T12:53:54;22.30;99.90
18868;DHT22;9563;49.240;9.088;2022-09-09T12:56:23;22.60;99.90
18868;DHT22;9563;49.240;9.088;2022-09-09T12:58:53;22.90;99.90
18868;DHT22;9563;49.240;9.088;2022-09-09T13:01:23;22.90;99.90
18868;DHT22;9563;49.240;9.088;2022-09-09T13:03:50;22.90;99.90
18868;DHT22;9563;49.240;9.088;2022-09-09T13:06:22;22.80;99.90
18868;DHT22;9563;49.240;9.088;2022-09-09T13:08:50;22.80;99.90
18868;DHT22;9563;49.240;9.088;2022-09-09T13:11:20;22.80;99.90
18868;DHT22;9563;49.240;9.088;2022-09-09T13:13:51;22.90;99.90
18868;DHT22;9563;49.240;9.088;2022-09-09T13:16:21;22.90;99.90
18868;DHT22;9563;49.240;9.088;2022-09-09T13:18:49;23.00;99.90
18868;DHT22;9563;49.240;9.088;2022-09-09T13:21:18;23.00;99.90
18868;DHT22;9563;49.240;9.088;2022-09-09T13:23:50;22.90;99.90
18868;DHT22;9563;49.240;9.088;2022-09-09T13:26:22;22.90;99.90
18868;DHT22;9563;49.240;9.088;2022-09-09T13:28:50;22.70;99.90
18868;DHT22;9563;49.240;9.088;2022-09-09T13:31:23;22.50;99.90
18868;DHT22;9563;49.240;9.088;2022-09-09T13:33:53;22.30;99.90
18868;DHT22;9563;49.240;9.088;2022-09-09T13:36:29;22.10;99.90
18868;DHT22;9563;49.240;9.088;2022-09-09T13:38:59;22.00;99.90
18868;DHT22;9563;49.240;9.088;2022-09-09T13:41:30;21.80;99.90
18868;DHT22;9563;49.240;9.088;2022-09-09T13:43:59;21.40;99.90
18868;DHT22;9563;49.240;9.088;2022-09-09T13:46:34;21.20;99.90
18868;DHT22;9563;49.240;9.088;2022-09-09T13:49:18;21.00;99.90
18868;DHT22;9563;49.240;9.088;2022-09-09T13:51:47;20.90;99.90
18868;DHT22;9563;49.240;9.088;2022-09-09T13:54:19;20.70;99.90
18868;DHT22;9563;49.240;9.088;2022-09-09T13:56:46;20.50;99.90
18868;DHT22;9563;49.240;9.088;2022-09-09T13:59:16;20.20;99.90
18868;DHT22;9563;49.240;9.088;2022-09-09T14:01:45;19.90;99.90
18868;DHT22;9563;49.240;9.088;2022-09-09T14:04:12;19.70;99.90
18868;DHT22;9563;49.240;9.088;2022-09-09T14:06:39;19.60;99.90
18868;DHT22;9563;49.240;9.088;2022-09-09T14:09:10;19.30;99.90
18868;DHT22;9563;49.240;9.088;2022-09-09T14:11:39;19.30;99.90
18868;DHT22;9563;49.240;9.088;2022-09-09T14:14:07;19.60;99.90
18868;DHT22;9563;49.240;9.088;2022-09-09T14:16:34;20.00;99.90
18868;DHT22;9563;49.240;9.088;2022-09-09T14:19:02;20.50;99.90
18868;DHT22;9563;49.240;9.088;2022-09-09T14:21:29;20.50;99.90
18868;DHT22;9563;49.240;9.088;2022-09-09T14:23:56;20.50;99.90
18868;DHT22;9563;49.240;9.088;2022-09-09T14:26:24;20.60;99.90
18868;DHT22;9563;49.240;9.088;2022-09-09T14:28:53;20.70;99.90
18868;DHT22;9563;49.240;9.088;2022-09-09T14:31:21;20.80;99.90
18868;DHT22;9563;49.240;9.088;2022-09-09T14:33:48;20.80;99.90
18868;DHT22;9563;49.240;9.088;2022-09-09T14:36:16;20.70;99.90
18868;DHT22;9563;49.240;9.088;2022-09-09T14:38:43;20.60;99.90
18868;DHT22;9563;49.240;9.088;2022-09-09T14:41:11;20.40;99.90
18868;DHT22;9563;49.240;9.088;2022-09-09T14:43:38;20.30;99.90
18868;DHT22;9563;49.240;9.088;2022-09-09T14:46:08;20.00;99.90
18868;DHT22;9563;49.240;9.088;2022-09-09T14:48:36;20.00;99.90
18868;DHT22;9563;49.240;9.088;2022-09-09T14:51:07;20.00;99.90
18868;DHT22;9563;49.240;9.088;2022-09-09T14:53:35;20.00;99.90
18868;DHT22;9563;49.240;9.088;2022-09-09T14:56:04;19.90;99.90
18868;DHT22;9563;49.240;9.088;2022-09-09T14:58:31;19.80;99.90
18868;DHT22;9563;49.240;9.088;2022-09-09T15:01:03;19.70;99.90
18868;DHT22;9563;49.240;9.088;2022-09-09T15:03:31;19.70;99.90
18868;DHT22;9563;49.240;9.088;2022-09-09T15:06:04;19.60;99.90
18868;DHT22;9563;49.240;9.088;2022-09-09T15:08:31;19.50;99.90
18868;DHT22;9563;49.240;9.088;2022-09-09T15:10:59;19.50;99.90
18868;DHT22;9563;49.240;9.088;2022-09-09T15:13:26;19.30;99.90
18868;DHT22;9563;49.240;9.088;2022-09-09T15:15:54;19.20;99.90
18868;DHT22;9563;49.240;9.088;2022-09-09T15:18:23;19.10;99.90
18868;DHT22;9563;49.240;9.088;2022-09-09T15:20:52;19.10;99.90
18868;DHT22;9563;49.240;9.088;2022-09-09T15:23:19;19.10;99.90
18868;DHT22;9563;49.240;9.088;2022-09-09T15:25:52;19.10;99.90
18868;DHT22;9563;49.240;9.088;2022-09-09T15:28:20;19.20;99.90
18868;DHT22;9563;49.240;9.088;2022-09-09T15:30:48;19.20;99.90
18868;DHT22;9563;49.240;9.088;2022-09-09T15:33:15;19.30;99.90
18868;DHT22;9563;49.240;9.088;2022-09-09T15:35:42;19.20;99.90
18868;DHT22;9563;49.240;9.088;2022-09-09T15:38:11;19.20;99.90
18868;DHT22;9563;49.240;9.088;2022-09-09T15:40:39;19.20;99.90
18868;DHT22;9563;49.240;9.088;2022-09-09T15:43:07;19.10;99.90
18868;DHT22;9563;49.240;9.088;2022-09-09T15:45:35;19.00;99.90
18868;DHT22;9563;49.240;9.088;2022-09-09T15:48:02;18.90;99.90
18868;DHT22;9563;49.240;9.088;2022-09-09T15:50:29;18.80;99.90
18868;DHT22;9563;49.240;9.088;2022-09-09T15:52:58;18.70;99.90
18868;DHT22;9563;49.240;9.088;2022-09-09T15:55:26;18.70;99.90
18868;DHT22;9563;49.240;9.088;2022-09-09T15:57:53;18.70;99.90
18868;DHT22;9563;49.240;9.088;2022-09-09T16:00:21;18.60;99.90
18868;DHT22;9563;49.240;9.088;2022-09-09T16:02:49;18.50;99.90
18868;DHT22;9563;49.240;9.088;2022-09-09T16:05:16;18.40;99.90
18868;DHT22;9563;49.240;9.088;2022-09-09T16:07:43;18.30;99.90
18868;DHT22;9563;49.240;9.088;2022-09-09T16:10:11;18.30;99.90
18868;DHT22;9563;49.240;9.088;2022-09-09T16:12:40;18.30;99.90